sensor_id;sensor_type;location;lat;lon;timestamp;P1;durP1;ratioP1;P2;durP2;ratioP2
44766;SDS011;30487;48.716;9.272;2023-08-24T00:00:05;7.50;;;4.13;;
44766;SDS011;30487;48.716;9.272;2023-08-24T00:02:31;8.95;;;4.10;;
44766;SDS011;30487;48.716;9.272;2023-08-24T00:04:57;7.55;;;4.30;;
44766;SDS011;30487;48.716;9.272;2023-08-24T00:07:22;11.60;;;4.20;;
44766;SDS011;30487;48.716;9.272;2023-08-24T00:09:48;9.40;;;4.13;;
44766;SDS011;30487;48.716;9.272;2023-08-24T00:12:13;9.98;;;4.30;;
44766;SDS011;30487;48.716;9.272;2023-08-24T00:14:39;10.98;;;4.38;;
44766;SDS011;30487;48.716;9.272;2023-08-24T00:17:05;6.85;;;4.05;;
44766;SDS011;30487;48.716;9.272;2023-08-24T00:19:30;8.95;;;3.95;;
44766;SDS011;30487;48.716;9.272;2023-08-24T00:21:56;9.23;;;4.32;;
44766;SDS011;30487;48.716;9.272;2023-08-24T00:24:21;6.40;;;4.10;;
44766;SDS011;30487;48.716;9.272;2023-08-24T00:26:47;7.85;;;4.28;;
44766;SDS011;30487;48.716;9.272;2023-08-24T00:29:12;9.30;;;4.47;;
44766;SDS011;30487;48.716;9.272;2023-08-24T00:31:38;10.82;;;4.82;;
44766;SDS011;30487;48.716;9.272;2023-08-24T00:34:03;9.13;;;4.68;;
44766;SDS011;30487;48.716;9.272;2023-08-24T00:36:29;10.40;;;4.60;;
44766;SDS011;30487;48.716;9.272;2023-08-24T00:38:54;10.63;;;4.78;;
44766;SDS011;30487;48.716;9.272;2023-08-24T00:41:20;8.20;;;4.95;;
44766;SDS011;30487;48.716;9.272;2023-08-24T00:43:47;8.77;;;5.22;;
44766;SDS011;30487;48.716;9.272;2023-08-24T00:46:15;8.13;;;5.30;;
44766;SDS011;30487;48.716;9.272;2023-08-24T00:48:41;7.45;;;4.97;;
44766;SDS011;30487;48.716;9.272;2023-08-24T00:51:07;10.02;;;4.50;;
44766;SDS011;30487;48.716;9.272;2023-08-24T00:53:33;10.15;;;4.57;;
44766;SDS011;30487;48.716;9.272;2023-08-24T00:55:59;8.15;;;4.93;;
44766;SDS011;30487;48.716;9.272;2023-08-24T00:58:26;7.63;;;5.00;;
44766;SDS011;30487;48.716;9.272;2023-08-24T01:00:52;8.68;;;5.53;;
44766;SDS011;30487;48.716;9.272;2023-08-24T01:03:19;11.00;;;5.55;;
44766;SDS011;30487;48.716;9.272;2023-08-24T01:05:46;9.35;;;5.75;;
44766;SDS011;30487;48.716;9.272;2023-08-24T01:08:12;13.13;;;8.10;;
44766;SDS011;30487;48.716;9.272;2023-08-24T01:11:00;14.45;;;7.57;;
44766;SDS011;30487;48.716;9.272;2023-08-24T01:13:31;9.05;;;6.63;;
44766;SDS011;30487;48.716;9.272;2023-08-24T01:16:22;10.43;;;6.90;;
44766;SDS011;30487;48.716;9.272;2023-08-24T01:18:54;14.63;;;7.68;;
44766;SDS011;30487;48.716;9.272;2023-08-24T01:21:21;12.07;;;6.30;;
44766;SDS011;30487;48.716;9.272;2023-08-24T01:23:57;14.45;;;6.70;;
44766;SDS011;30487;48.716;9.272;2023-08-24T01:26:25;14.25;;;7.13;;
44766;SDS011;30487;48.716;9.272;2023-08-24T01:28:52;14.85;;;6.88;;
44766;SDS011;30487;48.716;9.272;2023-08-24T01:31:18;8.18;;;5.90;;
44766;SDS011;30487;48.716;9.272;2023-08-24T01:33:44;11.05;;;6.00;;
44766;SDS011;30487;48.716;9.272;2023-08-24T01:36:11;10.20;;;6.18;;
44766;SDS011;30487;48.716;9.272;2023-08-24T01:38:37;8.65;;;5.60;;
44766;SDS011;30487;48.716;9.272;2023-08-24T01:43:51;10.05;;;5.72;;
44766;SDS011;30487;48.716;9.272;2023-08-24T01:46:19;9.73;;;5.63;;
44766;SDS011;30487;48.716;9.272;2023-08-24T01:48:47;10.02;;;5.85;;
44766;SDS011;30487;48.716;9.272;2023-08-24T01:51:13;10.63;;;6.03;;
44766;SDS011;30487;48.716;9.272;2023-08-24T01:53:40;8.23;;;5.32;;
44766;SDS011;30487;48.716;9.272;2023-08-24T01:56:12;10.60;;;5.80;;
44766;SDS011;30487;48.716;9.272;2023-08-24T01:58:40;8.32;;;5.50;;
44766;SDS011;30487;48.716;9.272;2023-08-24T02:01:05;9.70;;;5.90;;
44766;SDS011;30487;48.716;9.272;2023-08-24T02:03:32;12.00;;;5.90;;
44766;SDS011;30487;48.716;9.272;2023-08-24T02:05:57;10.07;;;5.65;;
44766;SDS011;30487;48.716;9.272;2023-08-24T02:08:23;11.27;;;5.65;;
44766;SDS011;30487;48.716;9.272;2023-08-24T02:10:48;7.97;;;5.38;;
44766;SDS011;30487;48.716;9.272;2023-08-24T02:13:14;10.45;;;5.55;;
44766;SDS011;30487;48.716;9.272;2023-08-24T02:15:39;8.32;;;4.90;;
44766;SDS011;30487;48.716;9.272;2023-08-24T02:18:06;8.68;;;5.50;;
44766;SDS011;30487;48.716;9.272;2023-08-24T02:20:38;8.02;;;5.43;;
44766;SDS011;30487;48.716;9.272;2023-08-24T02:23:04;10.90;;;5.18;;
44766;SDS011;30487;48.716;9.272;2023-08-24T02:25:30;10.40;;;5.60;;
44766;SDS011;30487;48.716;9.272;2023-08-24T02:27:56;10.20;;;5.00;;
44766;SDS011;30487;48.716;9.272;2023-08-24T02:30:22;9.25;;;5.10;;
44766;SDS011;30487;48.716;9.272;2023-08-24T02:32:47;11.30;;;4.88;;
44766;SDS011;30487;48.716;9.272;2023-08-24T02:35:14;9.55;;;4.97;;
44766;SDS011;30487;48.716;9.272;2023-08-24T02:37:40;9.20;;;5.32;;
44766;SDS011;30487;48.716;9.272;2023-08-24T02:40:05;11.30;;;6.03;;
44766;SDS011;30487;48.716;9.272;2023-08-24T02:42:32;10.43;;;5.93;;
44766;SDS011;30487;48.716;9.272;2023-08-24T02:44:58;9.50;;;6.10;;
44766;SDS011;30487;48.716;9.272;2023-08-24T02:47:24;10.38;;;6.35;;
44766;SDS011;30487;48.716;9.272;2023-08-24T02:49:50;12.60;;;5.97;;
44766;SDS011;30487;48.716;9.272;2023-08-24T02:52:15;9.57;;;6.20;;
44766;SDS011;30487;48.716;9.272;2023-08-24T02:54:41;11.57;;;6.93;;
44766;SDS011;30487;48.716;9.272;2023-08-24T02:57:07;10.10;;;6.18;;
44766;SDS011;30487;48.716;9.272;2023-08-24T02:59:32;9.38;;;5.00;;
44766;SDS011;30487;48.716;9.272;2023-08-24T03:01:58;9.55;;;5.70;;
44766;SDS011;30487;48.716;9.272;2023-08-24T03:04:23;8.32;;;5.40;;
44766;SDS011;30487;48.716;9.272;2023-08-24T03:06:49;9.20;;;5.53;;
44766;SDS011;30487;48.716;9.272;2023-08-24T03:09:14;11.55;;;5.43;;
44766;SDS011;30487;48.716;9.272;2023-08-24T03:11:40;7.60;;;5.22;;
44766;SDS011;30487;48.716;9.272;2023-08-24T03:14:06;9.48;;;4.82;;
44766;SDS011;30487;48.716;9.272;2023-08-24T03:16:31;8.27;;;5.30;;
44766;SDS011;30487;48.716;9.272;2023-08-24T03:18:57;7.90;;;5.10;;
44766;SDS011;30487;48.716;9.272;2023-08-24T03:21:23;8.10;;;4.47;;
44766;SDS011;30487;48.716;9.272;2023-08-24T03:23:49;8.40;;;4.80;;
44766;SDS011;30487;48.716;9.272;2023-08-24T03:26:14;11.02;;;5.30;;
44766;SDS011;30487;48.716;9.272;2023-08-24T03:28:41;8.55;;;4.72;;
44766;SDS011;30487;48.716;9.272;2023-08-24T03:31:07;7.85;;;5.15;;
44766;SDS011;30487;48.716;9.272;2023-08-24T03:33:33;5.88;;;4.60;;
44766;SDS011;30487;48.716;9.272;2023-08-24T03:35:59;8.15;;;5.25;;
44766;SDS011;30487;48.716;9.272;2023-08-24T03:38:25;8.90;;;5.53;;
44766;SDS011;30487;48.716;9.272;2023-08-24T03:40:51;10.43;;;5.40;;
44766;SDS011;30487;48.716;9.272;2023-08-24T03:43:17;8.00;;;5.40;;
44766;SDS011;30487;48.716;9.272;2023-08-24T03:45:42;9.45;;;5.40;;
44766;SDS011;30487;48.716;9.272;2023-08-24T03:48:09;10.38;;;5.50;;
44766;SDS011;30487;48.716;9.272;2023-08-24T03:50:34;9.73;;;5.90;;
44766;SDS011;30487;48.716;9.272;2023-08-24T03:53:00;9.82;;;5.40;;
44766;SDS011;30487;48.716;9.272;2023-08-24T03:55:25;8.23;;;5.30;;
44766;SDS011;30487;48.716;9.272;2023-08-24T03:57:51;7.88;;;5.18;;
44766;SDS011;30487;48.716;9.272;2023-08-24T04:00:19;8.27;;;5.80;;
44766;SDS011;30487;48.716;9.272;2023-08-24T04:02:44;10.77;;;5.88;;
44766;SDS011;30487;48.716;9.272;2023-08-24T04:05:10;11.43;;;6.00;;
44766;SDS011;30487;48.716;9.272;2023-08-24T04:07:37;10.85;;;5.63;;
44766;SDS011;30487;48.716;9.272;2023-08-24T04:10:03;13.35;;;6.25;;
44766;SDS011;30487;48.716;9.272;2023-08-24T04:12:30;10.68;;;5.95;;
44766;SDS011;30487;48.716;9.272;2023-08-24T04:14:58;8.70;;;5.57;;
44766;SDS011;30487;48.716;9.272;2023-08-24T04:17:24;9.73;;;5.97;;
44766;SDS011;30487;48.716;9.272;2023-08-24T04:19:50;12.35;;;6.10;;
44766;SDS011;30487;48.716;9.272;2023-08-24T04:22:16;10.55;;;5.85;;
44766;SDS011;30487;48.716;9.272;2023-08-24T04:24:41;8.32;;;5.72;;
44766;SDS011;30487;48.716;9.272;2023-08-24T04:27:07;8.93;;;5.65;;
44766;SDS011;30487;48.716;9.272;2023-08-24T04:29:32;13.45;;;5.97;;
44766;SDS011;30487;48.716;9.272;2023-08-24T04:31:58;13.52;;;6.15;;
44766;SDS011;30487;48.716;9.272;2023-08-24T04:34:24;11.82;;;6.15;;
44766;SDS011;30487;48.716;9.272;2023-08-24T04:36:52;9.80;;;6.10;;
44766;SDS011;30487;48.716;9.272;2023-08-24T04:39:19;9.00;;;5.47;;
44766;SDS011;30487;48.716;9.272;2023-08-24T04:41:45;7.35;;;5.43;;
44766;SDS011;30487;48.716;9.272;2023-08-24T04:44:10;8.27;;;5.72;;
44766;SDS011;30487;48.716;9.272;2023-08-24T04:46:36;11.63;;;5.85;;
44766;SDS011;30487;48.716;9.272;2023-08-24T04:49:01;9.48;;;5.35;;
44766;SDS011;30487;48.716;9.272;2023-08-24T04:51:28;11.15;;;5.85;;
44766;SDS011;30487;48.716;9.272;2023-08-24T04:53:54;9.30;;;5.72;;
44766;SDS011;30487;48.716;9.272;2023-08-24T04:56:19;8.35;;;6.10;;
44766;SDS011;30487;48.716;9.272;2023-08-24T04:58:53;8.93;;;5.28;;
44766;SDS011;30487;48.716;9.272;2023-08-24T05:01:22;10.82;;;5.80;;
44766;SDS011;30487;48.716;9.272;2023-08-24T05:03:51;9.10;;;5.90;;
44766;SDS011;30487;48.716;9.272;2023-08-24T05:06:18;10.70;;;5.93;;
44766;SDS011;30487;48.716;9.272;2023-08-24T05:08:44;9.43;;;5.43;;
44766;SDS011;30487;48.716;9.272;2023-08-24T05:11:10;6.93;;;5.45;;
44766;SDS011;30487;48.716;9.272;2023-08-24T05:13:39;9.48;;;5.85;;
44766;SDS011;30487;48.716;9.272;2023-08-24T05:16:05;13.80;;;6.00;;
44766;SDS011;30487;48.716;9.272;2023-08-24T05:18:31;9.43;;;5.75;;
44766;SDS011;30487;48.716;9.272;2023-08-24T05:20:56;9.57;;;5.28;;
44766;SDS011;30487;48.716;9.272;2023-08-24T05:23:22;8.63;;;5.53;;
44766;SDS011;30487;48.716;9.272;2023-08-24T05:25:47;10.98;;;6.07;;
44766;SDS011;30487;48.716;9.272;2023-08-24T05:28:13;9.30;;;5.18;;
44766;SDS011;30487;48.716;9.272;2023-08-24T05:30:38;8.07;;;5.18;;
44766;SDS011;30487;48.716;9.272;2023-08-24T05:33:04;9.38;;;5.13;;
44766;SDS011;30487;48.716;9.272;2023-08-24T05:35:29;8.90;;;5.57;;
44766;SDS011;30487;48.716;9.272;2023-08-24T05:37:55;8.13;;;5.30;;
44766;SDS011;30487;48.716;9.272;2023-08-24T05:40:20;7.00;;;5.32;;
44766;SDS011;30487;48.716;9.272;2023-08-24T05:42:46;13.85;;;5.20;;
44766;SDS011;30487;48.716;9.272;2023-08-24T05:45:13;8.55;;;5.30;;
44766;SDS011;30487;48.716;9.272;2023-08-24T05:47:38;17.15;;;5.95;;
44766;SDS011;30487;48.716;9.272;2023-08-24T05:50:04;11.15;;;5.28;;
44766;SDS011;30487;48.716;9.272;2023-08-24T05:52:30;7.88;;;5.60;;
44766;SDS011;30487;48.716;9.272;2023-08-24T05:54:57;11.77;;;6.03;;
44766;SDS011;30487;48.716;9.272;2023-08-24T05:57:23;8.40;;;5.53;;
44766;SDS011;30487;48.716;9.272;2023-08-24T05:59:48;9.32;;;5.90;;
44766;SDS011;30487;48.716;9.272;2023-08-24T06:02:14;14.93;;;5.47;;
44766;SDS011;30487;48.716;9.272;2023-08-24T06:04:39;13.40;;;5.47;;
44766;SDS011;30487;48.716;9.272;2023-08-24T06:07:05;10.27;;;6.20;;
44766;SDS011;30487;48.716;9.272;2023-08-24T06:09:31;7.90;;;5.60;;
44766;SDS011;30487;48.716;9.272;2023-08-24T06:11:57;11.00;;;4.97;;
44766;SDS011;30487;48.716;9.272;2023-08-24T06:14:22;11.23;;;5.10;;
44766;SDS011;30487;48.716;9.272;2023-08-24T06:16:48;10.23;;;5.00;;
44766;SDS011;30487;48.716;9.272;2023-08-24T06:19:13;9.95;;;5.32;;
44766;SDS011;30487;48.716;9.272;2023-08-24T06:21:39;8.50;;;4.82;;
44766;SDS011;30487;48.716;9.272;2023-08-24T06:24:05;8.45;;;4.78;;
44766;SDS011;30487;48.716;9.272;2023-08-24T06:26:30;14.77;;;5.78;;
44766;SDS011;30487;48.716;9.272;2023-08-24T06:28:56;9.27;;;4.80;;
44766;SDS011;30487;48.716;9.272;2023-08-24T06:31:21;12.57;;;5.18;;
44766;SDS011;30487;48.716;9.272;2023-08-24T06:33:47;50.55;;;7.65;;
44766;SDS011;30487;48.716;9.272;2023-08-24T06:36:13;29.58;;;6.38;;
44766;SDS011;30487;48.716;9.272;2023-08-24T06:38:39;15.43;;;5.90;;
44766;SDS011;30487;48.716;9.272;2023-08-24T06:41:04;11.23;;;5.47;;
44766;SDS011;30487;48.716;9.272;2023-08-24T06:43:30;10.02;;;5.53;;
44766;SDS011;30487;48.716;9.272;2023-08-24T06:45:55;13.65;;;5.45;;
44766;SDS011;30487;48.716;9.272;2023-08-24T06:48:21;12.93;;;6.05;;
44766;SDS011;30487;48.716;9.272;2023-08-24T06:50:47;9.07;;;5.20;;
44766;SDS011;30487;48.716;9.272;2023-08-24T06:53:12;13.13;;;5.80;;
44766;SDS011;30487;48.716;9.272;2023-08-24T06:55:39;15.85;;;5.68;;
44766;SDS011;30487;48.716;9.272;2023-08-24T06:58:05;11.55;;;5.85;;
44766;SDS011;30487;48.716;9.272;2023-08-24T07:00:31;8.18;;;5.22;;
44766;SDS011;30487;48.716;9.272;2023-08-24T07:02:57;13.35;;;5.60;;
44766;SDS011;30487;48.716;9.272;2023-08-24T07:05:23;10.52;;;5.72;;
44766;SDS011;30487;48.716;9.272;2023-08-24T07:07:52;12.18;;;5.30;;
44766;SDS011;30487;48.716;9.272;2023-08-24T07:10:18;9.32;;;5.32;;
44766;SDS011;30487;48.716;9.272;2023-08-24T07:12:44;11.25;;;5.38;;
44766;SDS011;30487;48.716;9.272;2023-08-24T07:15:13;12.85;;;5.05;;
44766;SDS011;30487;48.716;9.272;2023-08-24T07:17:39;6.90;;;4.40;;
44766;SDS011;30487;48.716;9.272;2023-08-24T07:20:06;9.68;;;4.47;;
44766;SDS011;30487;48.716;9.272;2023-08-24T07:22:33;8.55;;;4.57;;
44766;SDS011;30487;48.716;9.272;2023-08-24T07:25:00;10.80;;;5.07;;
44766;SDS011;30487;48.716;9.272;2023-08-24T07:27:26;10.43;;;4.78;;
44766;SDS011;30487;48.716;9.272;2023-08-24T07:29:53;10.88;;;4.95;;
44766;SDS011;30487;48.716;9.272;2023-08-24T07:32:19;8.95;;;4.45;;
44766;SDS011;30487;48.716;9.272;2023-08-24T07:34:44;17.75;;;5.53;;
44766;SDS011;30487;48.716;9.272;2023-08-24T07:37:10;10.27;;;4.95;;
44766;SDS011;30487;48.716;9.272;2023-08-24T07:39:35;17.77;;;5.28;;
44766;SDS011;30487;48.716;9.272;2023-08-24T07:42:02;13.25;;;5.13;;
44766;SDS011;30487;48.716;9.272;2023-08-24T07:44:28;6.68;;;4.22;;
44766;SDS011;30487;48.716;9.272;2023-08-24T07:46:54;9.85;;;5.15;;
44766;SDS011;30487;48.716;9.272;2023-08-24T07:49:20;9.48;;;4.70;;
44766;SDS011;30487;48.716;9.272;2023-08-24T07:51:46;7.50;;;4.57;;
44766;SDS011;30487;48.716;9.272;2023-08-24T07:54:12;11.25;;;5.68;;
44766;SDS011;30487;48.716;9.272;2023-08-24T07:56:38;10.38;;;5.00;;
44766;SDS011;30487;48.716;9.272;2023-08-24T07:59:03;12.38;;;5.53;;
44766;SDS011;30487;48.716;9.272;2023-08-24T08:01:29;12.20;;;5.55;;
44766;SDS011;30487;48.716;9.272;2023-08-24T08:03:55;10.57;;;5.13;;
44766;SDS011;30487;48.716;9.272;2023-08-24T08:06:21;7.53;;;4.20;;
44766;SDS011;30487;48.716;9.272;2023-08-24T08:08:47;8.25;;;4.03;;
44766;SDS011;30487;48.716;9.272;2023-08-24T08:11:15;12.52;;;4.85;;
44766;SDS011;30487;48.716;9.272;2023-08-24T08:13:40;7.03;;;4.47;;
44766;SDS011;30487;48.716;9.272;2023-08-24T08:16:06;9.82;;;4.40;;
44766;SDS011;30487;48.716;9.272;2023-08-24T08:18:32;7.75;;;4.45;;
44766;SDS011;30487;48.716;9.272;2023-08-24T08:20:59;9.30;;;4.72;;
44766;SDS011;30487;48.716;9.272;2023-08-24T08:23:24;14.68;;;4.60;;
44766;SDS011;30487;48.716;9.272;2023-08-24T08:25:50;15.07;;;4.45;;
44766;SDS011;30487;48.716;9.272;2023-08-24T08:28:16;9.07;;;4.32;;
44766;SDS011;30487;48.716;9.272;2023-08-24T08:30:42;9.70;;;3.88;;
44766;SDS011;30487;48.716;9.272;2023-08-24T08:33:08;6.18;;;3.78;;
44766;SDS011;30487;48.716;9.272;2023-08-24T08:35:34;9.27;;;4.20;;
44766;SDS011;30487;48.716;9.272;2023-08-24T08:37:59;6.68;;;4.00;;
44766;SDS011;30487;48.716;9.272;2023-08-24T08:40:25;5.15;;;3.67;;
44766;SDS011;30487;48.716;9.272;2023-08-24T08:42:55;9.05;;;3.75;;
44766;SDS011;30487;48.716;9.272;2023-08-24T08:45:24;7.57;;;3.80;;
44766;SDS011;30487;48.716;9.272;2023-08-24T08:47:51;5.20;;;3.50;;
44766;SDS011;30487;48.716;9.272;2023-08-24T08:50:18;7.60;;;3.75;;
44766;SDS011;30487;48.716;9.272;2023-08-24T08:52:44;10.32;;;3.88;;
44766;SDS011;30487;48.716;9.272;2023-08-24T08:55:09;9.80;;;3.22;;
44766;SDS011;30487;48.716;9.272;2023-08-24T08:57:36;6.78;;;3.47;;
44766;SDS011;30487;48.716;9.272;2023-08-24T09:00:03;6.28;;;3.53;;
44766;SDS011;30487;48.716;9.272;2023-08-24T09:02:30;6.88;;;3.70;;
44766;SDS011;30487;48.716;9.272;2023-08-24T09:04:57;8.60;;;3.55;;
44766;SDS011;30487;48.716;9.272;2023-08-24T09:07:22;10.93;;;3.58;;
44766;SDS011;30487;48.716;9.272;2023-08-24T09:09:48;5.32;;;3.30;;
44766;SDS011;30487;48.716;9.272;2023-08-24T09:12:15;5.35;;;3.50;;
44766;SDS011;30487;48.716;9.272;2023-08-24T09:14:41;10.32;;;3.40;;
44766;SDS011;30487;48.716;9.272;2023-08-24T09:17:06;11.07;;;3.63;;
44766;SDS011;30487;48.716;9.272;2023-08-24T09:19:33;7.07;;;4.03;;
44766;SDS011;30487;48.716;9.272;2023-08-24T09:22:00;6.68;;;3.55;;
44766;SDS011;30487;48.716;9.272;2023-08-24T09:24:35;7.53;;;4.13;;
44766;SDS011;30487;48.716;9.272;2023-08-24T09:27:14;6.70;;;3.90;;
44766;SDS011;30487;48.716;9.272;2023-08-24T09:29:41;7.18;;;3.72;;
44766;SDS011;30487;48.716;9.272;2023-08-24T09:32:10;7.95;;;3.63;;
44766;SDS011;30487;48.716;9.272;2023-08-24T09:34:37;5.68;;;3.90;;
44766;SDS011;30487;48.716;9.272;2023-08-24T09:37:02;12.07;;;3.88;;
44766;SDS011;30487;48.716;9.272;2023-08-24T09:39:31;9.38;;;3.80;;
44766;SDS011;30487;48.716;9.272;2023-08-24T09:41:59;12.15;;;3.78;;
44766;SDS011;30487;48.716;9.272;2023-08-24T09:44:28;8.93;;;3.97;;
44766;SDS011;30487;48.716;9.272;2023-08-24T09:46:53;7.45;;;3.60;;
44766;SDS011;30487;48.716;9.272;2023-08-24T09:49:19;6.05;;;3.75;;
44766;SDS011;30487;48.716;9.272;2023-08-24T09:51:45;7.43;;;3.47;;
44766;SDS011;30487;48.716;9.272;2023-08-24T09:54:11;6.05;;;3.42;;
44766;SDS011;30487;48.716;9.272;2023-08-24T09:56:39;7.03;;;3.53;;
44766;SDS011;30487;48.716;9.272;2023-08-24T09:59:07;6.25;;;3.63;;
44766;SDS011;30487;48.716;9.272;2023-08-24T10:01:35;5.88;;;3.25;;
44766;SDS011;30487;48.716;9.272;2023-08-24T10:04:02;8.70;;;3.40;;
44766;SDS011;30487;48.716;9.272;2023-08-24T10:06:30;8.30;;;3.42;;
44766;SDS011;30487;48.716;9.272;2023-08-24T10:09:01;8.93;;;3.97;;
44766;SDS011;30487;48.716;9.272;2023-08-24T10:11:29;8.35;;;3.90;;
44766;SDS011;30487;48.716;9.272;2023-08-24T10:16:22;7.03;;;3.92;;
44766;SDS011;30487;48.716;9.272;2023-08-24T10:18:49;9.82;;;3.63;;
44766;SDS011;30487;48.716;9.272;2023-08-24T10:21:16;7.13;;;3.70;;
44766;SDS011;30487;48.716;9.272;2023-08-24T10:23:43;9.93;;;3.58;;
44766;SDS011;30487;48.716;9.272;2023-08-24T10:26:11;6.45;;;4.05;;
44766;SDS011;30487;48.716;9.272;2023-08-24T10:28:38;5.65;;;3.85;;
44766;SDS011;30487;48.716;9.272;2023-08-24T10:31:04;5.85;;;3.42;;
44766;SDS011;30487;48.716;9.272;2023-08-24T10:33:31;9.18;;;3.80;;
44766;SDS011;30487;48.716;9.272;2023-08-24T10:35:59;6.88;;;3.53;;
44766;SDS011;30487;48.716;9.272;2023-08-24T10:38:28;8.48;;;3.80;;
44766;SDS011;30487;48.716;9.272;2023-08-24T10:41:01;8.73;;;3.97;;
44766;SDS011;30487;48.716;9.272;2023-08-24T10:43:29;9.13;;;4.25;;
44766;SDS011;30487;48.716;9.272;2023-08-24T10:46:01;9.55;;;3.97;;
44766;SDS011;30487;48.716;9.272;2023-08-24T10:48:29;5.60;;;3.85;;
44766;SDS011;30487;48.716;9.272;2023-08-24T10:53:55;5.00;;;3.70;;
44766;SDS011;30487;48.716;9.272;2023-08-24T10:56:24;6.55;;;3.80;;
44766;SDS011;30487;48.716;9.272;2023-08-24T10:59:14;7.38;;;4.35;;
44766;SDS011;30487;48.716;9.272;2023-08-24T11:02:02;5.68;;;3.95;;
44766;SDS011;30487;48.716;9.272;2023-08-24T11:04:28;6.40;;;4.20;;
44766;SDS011;30487;48.716;9.272;2023-08-24T11:06:55;12.05;;;4.00;;
44766;SDS011;30487;48.716;9.272;2023-08-24T11:09:31;8.43;;;4.65;;
44766;SDS011;30487;48.716;9.272;2023-08-24T11:12:11;8.88;;;3.88;;
44766;SDS011;30487;48.716;9.272;2023-08-24T11:14:48;6.90;;;3.95;;
44766;SDS011;30487;48.716;9.272;2023-08-24T11:17:20;7.00;;;4.18;;
44766;SDS011;30487;48.716;9.272;2023-08-24T11:19:47;6.32;;;3.70;;
44766;SDS011;30487;48.716;9.272;2023-08-24T11:22:15;11.60;;;4.57;;
44766;SDS011;30487;48.716;9.272;2023-08-24T11:24:45;8.88;;;3.95;;
44766;SDS011;30487;48.716;9.272;2023-08-24T11:27:10;18.60;;;4.65;;
44766;SDS011;30487;48.716;9.272;2023-08-24T11:29:36;9.18;;;4.50;;
44766;SDS011;30487;48.716;9.272;2023-08-24T11:32:02;8.55;;;4.20;;
44766;SDS011;30487;48.716;9.272;2023-08-24T11:34:28;6.85;;;4.20;;
44766;SDS011;30487;48.716;9.272;2023-08-24T11:36:59;5.57;;;3.90;;
44766;SDS011;30487;48.716;9.272;2023-08-24T11:39:25;7.82;;;4.35;;
44766;SDS011;30487;48.716;9.272;2023-08-24T11:42:05;9.35;;;4.18;;
44766;SDS011;30487;48.716;9.272;2023-08-24T11:44:46;7.70;;;4.00;;
44766;SDS011;30487;48.716;9.272;2023-08-24T11:47:12;14.32;;;4.38;;
44766;SDS011;30487;48.716;9.272;2023-08-24T11:49:38;9.48;;;4.25;;
44766;SDS011;30487;48.716;9.272;2023-08-24T11:52:04;8.93;;;4.38;;
44766;SDS011;30487;48.716;9.272;2023-08-24T11:54:32;9.73;;;4.00;;
44766;SDS011;30487;48.716;9.272;2023-08-24T11:56:58;7.70;;;4.07;;
44766;SDS011;30487;48.716;9.272;2023-08-24T11:59:23;8.48;;;4.15;;
44766;SDS011;30487;48.716;9.272;2023-08-24T12:01:50;14.88;;;4.63;;
44766;SDS011;30487;48.716;9.272;2023-08-24T12:04:17;9.02;;;4.10;;
44766;SDS011;30487;48.716;9.272;2023-08-24T12:06:43;8.10;;;4.30;;
44766;SDS011;30487;48.716;9.272;2023-08-24T12:09:08;10.77;;;4.60;;
44766;SDS011;30487;48.716;9.272;2023-08-24T12:11:37;8.43;;;4.30;;
44766;SDS011;30487;48.716;9.272;2023-08-24T12:14:03;5.95;;;4.32;;
44766;SDS011;30487;48.716;9.272;2023-08-24T12:16:31;8.93;;;4.22;;
44766;SDS011;30487;48.716;9.272;2023-08-24T12:18:58;6.68;;;4.10;;
44766;SDS011;30487;48.716;9.272;2023-08-24T12:21:25;7.68;;;4.15;;
44766;SDS011;30487;48.716;9.272;2023-08-24T12:23:54;10.13;;;4.75;;
44766;SDS011;30487;48.716;9.272;2023-08-24T12:26:23;7.22;;;4.22;;
44766;SDS011;30487;48.716;9.272;2023-08-24T12:28:50;7.68;;;4.10;;
44766;SDS011;30487;48.716;9.272;2023-08-24T12:31:17;19.27;;;4.63;;
44766;SDS011;30487;48.716;9.272;2023-08-24T12:33:44;5.97;;;4.20;;
44766;SDS011;30487;48.716;9.272;2023-08-24T12:36:10;10.20;;;4.80;;
44766;SDS011;30487;48.716;9.272;2023-08-24T12:38:35;6.85;;;4.28;;
44766;SDS011;30487;48.716;9.272;2023-08-24T12:41:01;7.15;;;4.43;;
44766;SDS011;30487;48.716;9.272;2023-08-24T12:43:27;8.15;;;4.65;;
44766;SDS011;30487;48.716;9.272;2023-08-24T12:45:52;7.32;;;4.15;;
44766;SDS011;30487;48.716;9.272;2023-08-24T12:48:18;8.40;;;4.13;;
44766;SDS011;30487;48.716;9.272;2023-08-24T12:50:44;7.10;;;4.03;;
44766;SDS011;30487;48.716;9.272;2023-08-24T12:53:10;7.07;;;4.20;;
44766;SDS011;30487;48.716;9.272;2023-08-24T12:55:38;8.10;;;4.15;;
44766;SDS011;30487;48.716;9.272;2023-08-24T12:58:05;9.00;;;4.00;;
44766;SDS011;30487;48.716;9.272;2023-08-24T13:00:31;6.60;;;3.97;;
44766;SDS011;30487;48.716;9.272;2023-08-24T13:02:56;11.40;;;4.28;;
44766;SDS011;30487;48.716;9.272;2023-08-24T13:05:22;8.35;;;4.40;;
44766;SDS011;30487;48.716;9.272;2023-08-24T13:07:48;9.65;;;4.32;;
44766;SDS011;30487;48.716;9.272;2023-08-24T13:10:13;8.32;;;3.95;;
44766;SDS011;30487;48.716;9.272;2023-08-24T13:12:39;11.77;;;4.35;;
44766;SDS011;30487;48.716;9.272;2023-08-24T13:15:05;8.25;;;4.20;;
44766;SDS011;30487;48.716;9.272;2023-08-24T13:17:31;13.10;;;4.47;;
44766;SDS011;30487;48.716;9.272;2023-08-24T13:19:56;7.78;;;4.45;;
44766;SDS011;30487;48.716;9.272;2023-08-24T13:22:22;39.97;;;6.55;;
44766;SDS011;30487;48.716;9.272;2023-08-24T13:24:48;9.50;;;4.32;;
44766;SDS011;30487;48.716;9.272;2023-08-24T13:27:14;12.02;;;4.57;;
44766;SDS011;30487;48.716;9.272;2023-08-24T13:29:42;10.40;;;4.60;;
44766;SDS011;30487;48.716;9.272;2023-08-24T13:32:08;12.85;;;4.68;;
44766;SDS011;30487;48.716;9.272;2023-08-24T13:34:33;8.23;;;4.40;;
44766;SDS011;30487;48.716;9.272;2023-08-24T13:37:01;39.70;;;5.97;;
44766;SDS011;30487;48.716;9.272;2023-08-24T13:39:27;10.60;;;4.45;;
44766;SDS011;30487;48.716;9.272;2023-08-24T13:41:54;17.90;;;4.90;;
44766;SDS011;30487;48.716;9.272;2023-08-24T13:44:23;6.60;;;3.85;;
44766;SDS011;30487;48.716;9.272;2023-08-24T13:46:49;12.00;;;4.47;;
44766;SDS011;30487;48.716;9.272;2023-08-24T13:49:16;9.45;;;3.92;;
44766;SDS011;30487;48.716;9.272;2023-08-24T13:51:43;10.40;;;4.20;;
44766;SDS011;30487;48.716;9.272;2023-08-24T13:54:15;14.57;;;4.22;;
44766;SDS011;30487;48.716;9.272;2023-08-24T13:56:46;10.00;;;4.03;;
44766;SDS011;30487;48.716;9.272;2023-08-24T13:59:12;13.77;;;3.92;;
44766;SDS011;30487;48.716;9.272;2023-08-24T14:01:39;14.93;;;4.25;;
44766;SDS011;30487;48.716;9.272;2023-08-24T14:04:07;25.15;;;4.35;;
44766;SDS011;30487;48.716;9.272;2023-08-24T14:06:33;23.25;;;4.72;;
44766;SDS011;30487;48.716;9.272;2023-08-24T14:09:02;14.70;;;4.20;;
44766;SDS011;30487;48.716;9.272;2023-08-24T14:11:29;8.77;;;4.15;;
44766;SDS011;30487;48.716;9.272;2023-08-24T14:13:55;86.97;;;8.18;;
44766;SDS011;30487;48.716;9.272;2023-08-24T14:16:20;38.22;;;5.03;;
44766;SDS011;30487;48.716;9.272;2023-08-24T14:18:46;12.27;;;3.70;;
44766;SDS011;30487;48.716;9.272;2023-08-24T14:21:12;12.05;;;3.55;;
44766;SDS011;30487;48.716;9.272;2023-08-24T14:23:38;20.27;;;4.47;;
44766;SDS011;30487;48.716;9.272;2023-08-24T14:26:05;12.50;;;3.78;;
44766;SDS011;30487;48.716;9.272;2023-08-24T14:28:50;18.55;;;3.88;;
44766;SDS011;30487;48.716;9.272;2023-08-24T14:31:18;9.82;;;3.78;;
44766;SDS011;30487;48.716;9.272;2023-08-24T14:33:45;13.85;;;4.05;;
44766;SDS011;30487;48.716;9.272;2023-08-24T14:36:10;11.88;;;3.70;;
44766;SDS011;30487;48.716;9.272;2023-08-24T14:38:40;8.85;;;3.92;;
44766;SDS011;30487;48.716;9.272;2023-08-24T14:41:10;12.05;;;3.90;;
44766;SDS011;30487;48.716;9.272;2023-08-24T14:43:36;11.30;;;4.07;;
44766;SDS011;30487;48.716;9.272;2023-08-24T14:46:03;17.83;;;4.65;;
44766;SDS011;30487;48.716;9.272;2023-08-24T14:48:29;19.25;;;4.00;;